Airfield :
LOGIN :

Register | Disclaimer

   EN    FR    IT 

 










Legend :    VFR   Marginal VFR   IFR   Intensive IFR   Very Intensive IFR
Visi :
Ceiling :
>= 8 km
>= 3000ft
5 to 8 km
1000 to 3000 ft
1500m to 5 km
500 to 1000 ft
800 to 1500m
200 to 500 ft
< 800m
< 200 ft
Symbols :   Thunderstorms  Fog  Heavy snow  Heavy precipitations  Wind > 20 kt
SIGMETs :     Misc.  Thunderstorms  Icing  Turbulence  Mountain Waves  Volcanic Ashes







- Airport Elevation : 427 ft
- IATA code : CIA


LIRA - Roma Ciampino

CURRENT METAR :
  • 171620Z 36009KT 9999 DZ FEW020 BKN060 07/04 Q1013

EXPIRED METARs :
  • 171550Z 01008KT 9999 FEW010 SCT020 BKN050 07/04 Q1012
  • 171520Z 36009KT 9999 FEW015 BKN020 07/04 Q1012
  • 171450Z 35009KT 330V030 9999 SCT015 BKN030 07/04 Q1012
  • 171420Z 35010KT 9999 SCT015 BKN030 08/04 Q1012
  • 171350Z 36008KT 9999 SCT015 BKN025 08/04 Q1012

TAF TAF LIRA
Valid from the 17 at 12:00 until the 18 at 12:00 UTC


171100Z 1712/1812 02010KT 9999 SCT030
BECMG 1715/1717 02015G25KT
BECMG 1803/1806 02012KT
No reported NOTAMs for that airfield.
4 SIGMETs reported for the Roma FIR (LIRR) :
 
Embedded thunderstorms
LIRR SIGMET 14 VALID 171635/171835 LIIB
LIRR ROMA FIR EMBD TS FCST WI N4042 E01312 - N4020 E01112 - N3854 E01501 - N3832 E01313 - N3725 E01452 - N3658 E01828 - N3851 E01857 - N3858 E01634 - N4037 E01524 - N4042 E01312 TOP FL390 MOV SE NC=
Severe mountain waves
LIRR SIGMET 13 VALID 171635/171835 LIIB
LIRR ROMA FIR SEV MTW FCST WI N4205 E00946 - N4120 E00951 - N4115 E00904 - N3858 E00822 - N3837 E01330 - N4104 E01210 - N4205 E00946 FL020/130 STNR NC=
Embedded thunderstorms
LIRR SIGMET 12 VALID 171445/171635 LIIB
LIRR ROMA FIR EMBD TS FCST WI N3910 E01445 - N3849 E01307 - N3809 E01159 - N3645 E01905 - N3853 E01847 - N3858 E01634 - N4037 E01524 - N3910 E01445 TOP FL340 MOV S NC=
Severe mountain waves
LIRR SIGMET 11 VALID 171442/171635 LIIB
LIRR ROMA FIR SEV MTW FCST WI N4205 E00946 - N4120 E00951 - N4115 E00904 - N3858 E00822 - N3837 E01330 - N4104 E01210 - N4205 E00946 FL020/130 STNR NC=



MET'MAP, your aeronautical weather chart ! - Copyright ORBIFLY December 2007 - Disclaimer

ORBIFLY MET'MAP TEAM :

Programming & Development : Alexandra Zaïnal
Concept & Development : Baudouin d'Aumeries
Co-Development & Prog : Marc-Olivier Méhu
Technical & hardware support : Manuel Goepfert

Contact : metmap@orbifly.com




SOURCES & CREDITS :

   NOAA